Time;durP1;ratioP1;P1;durP2;ratioP2;P2;SDS_P1;SDS_P2;PMS_P1;PMS_P2;Temp;Humidity;BMP_temperature;BMP_pressure;BME280_temperature;BME280_humidity;BME280_pressure;Samples;Min_cycle;Max_cycle;Signal;HPM_P1;HPM_P2
2023/01/04 00:00:01;;;;;;;;;;;4.40;99.90;;;;;;5096921;28;19920;-74
2023/01/04 00:02:27;;;;;;;;;;;4.40;99.90;;;;;;5096896;28;20429;-74
2023/01/04 00:04:52;;;;;;;;;;;4.40;99.90;;;;;;5096917;28;19919;-73
2023/01/04 00:07:18;;;;;;;;;;;4.50;99.90;;;;;;5096825;28;20295;-73
2023/01/04 00:09:43;;;;;;;;;;;4.50;99.90;;;;;;5096719;28;20283;-73
2023/01/04 00:12:09;;;;;;;;;;;4.50;99.90;;;;;;5096729;28;19975;-74
2023/01/04 00:14:34;;;;;;;;;;;4.50;99.90;;;;;;5096626;28;19916;-74
2023/01/04 00:17:00;;;;;;;;;;;4.50;99.90;;;;;;5096940;28;19955;-74
2023/01/04 00:19:25;;;;;;;;;;;4.50;99.90;;;;;;5096419;28;19923;-73
2023/01/04 00:21:52;;;;;;;;;;;4.50;99.90;;;;;;5096536;28;20466;-73
2023/01/04 00:24:17;;;;;;;;;;;4.50;99.90;;;;;;5096426;28;19977;-73
2023/01/04 00:26:43;;;;;;;;;;;4.50;99.90;;;;;;5096411;28;20402;-73
2023/01/04 00:29:10;;;;;;;;;;;4.40;99.90;;;;;;5096294;28;19947;-73
2023/01/04 00:31:35;;;;;;;;;;;4.40;99.90;;;;;;5096647;28;20425;-73
2023/01/04 00:34:02;;;;;;;;;;;4.40;99.90;;;;;;5096296;28;19969;-73
2023/01/04 00:36:28;;;;;;;;;;;4.40;99.90;;;;;;5096580;28;19952;-73
2023/01/04 00:39:06;;;;;;;;;;;4.40;99.90;;;;;;5096166;28;19987;-73
2023/01/04 00:41:42;;;;;;;;;;;4.40;99.90;;;;;;5096503;28;19908;-74
2023/01/04 00:44:09;;;;;;;;;;;4.40;99.90;;;;;;5096150;28;19943;-74
2023/01/04 00:46:35;;;;;;;;;;;4.40;99.90;;;;;;5096351;28;19987;-73
2023/01/04 00:49:00;;;;;;;;;;;4.40;99.90;;;;;;5095934;28;19957;-73
2023/01/04 00:51:27;;;;;;;;;;;4.40;99.90;;;;;;5095995;28;19916;-74
2023/01/04 00:53:52;;;;;;;;;;;4.40;99.90;;;;;;5096033;28;20090;-73
2023/01/04 00:56:18;;;;;;;;;;;4.40;99.90;;;;;;5096197;28;20014;-73
2023/01/04 00:58:44;;;;;;;;;;;4.40;99.90;;;;;;5095928;28;20359;-73
2023/01/04 01:01:09;;;;;;;;;;;4.40;99.90;;;;;;5096020;28;19914;-73
2023/01/04 01:03:35;;;;;;;;;;;4.40;99.90;;;;;;5095708;28;20006;-73
2023/01/04 01:06:01;;;;;;;;;;;4.40;99.90;;;;;;5094907;28;20433;-73
2023/01/04 01:08:27;;;;;;;;;;;4.40;99.90;;;;;;5077453;28;19912;-73
2023/01/04 01:10:53;;;;;;;;;;;4.40;99.90;;;;;;5095775;28;19920;-73
2023/01/04 01:13:19;;;;;;;;;;;4.40;99.90;;;;;;5095826;28;19908;-73
2023/01/04 01:15:45;;;;;;;;;;;4.40;99.90;;;;;;5095836;28;19908;-73
2023/01/04 01:18:10;;;;;;;;;;;4.40;99.90;;;;;;5095434;28;19920;-73
2023/01/04 01:20:40;;;;;;;;;;;4.40;99.90;;;;;;5095523;28;19923;-73
2023/01/04 01:23:06;;;;;;;;;;;4.40;99.90;;;;;;5095386;28;19912;-73
2023/01/04 01:25:34;;;;;;;;;;;4.40;99.90;;;;;;5077224;28;19913;-73
2023/01/04 01:28:00;;;;;;;;;;;4.50;99.90;;;;;;5094422;28;20393;-73
2023/01/04 01:30:26;;;;;;;;;;;4.40;99.90;;;;;;5095081;28;19912;-73
2023/01/04 01:32:51;;;;;;;;;;;4.40;99.90;;;;;;5095429;28;20366;-73
2023/01/04 01:35:17;;;;;;;;;;;4.50;99.90;;;;;;5095481;28;20002;-73
2023/01/04 01:37:42;;;;;;;;;;;4.50;99.90;;;;;;5095025;28;19919;-73
2023/01/04 01:40:08;;;;;;;;;;;4.40;99.90;;;;;;5116580;22;19924;-71
2023/01/04 01:42:34;;;;;;;;;;;4.40;99.90;;;;;;5115291;28;20380;-71
2023/01/04 01:45:01;;;;;;;;;;;4.40;99.90;;;;;;5115314;28;19968;-71
2023/01/04 01:47:37;;;;;;;;;;;4.40;99.90;;;;;;5115506;28;19908;-71
2023/01/04 01:50:04;;;;;;;;;;;4.40;99.90;;;;;;5115113;28;20290;-71
2023/01/04 01:52:31;;;;;;;;;;;4.40;99.90;;;;;;5114281;28;19951;-71
2023/01/04 01:54:59;;;;;;;;;;;4.40;99.90;;;;;;5114876;28;19915;-71
2023/01/04 01:57:26;;;;;;;;;;;4.40;99.90;;;;;;5115038;28;19907;-71
2023/01/04 01:59:53;;;;;;;;;;;4.40;99.90;;;;;;5113795;28;19923;-71
2023/01/04 02:02:19;;;;;;;;;;;4.40;99.90;;;;;;5114644;28;19907;-71
2023/01/04 02:04:46;;;;;;;;;;;4.30;99.90;;;;;;5115199;28;19918;-71
2023/01/04 02:07:14;;;;;;;;;;;4.30;99.90;;;;;;5114142;28;19907;-71
2023/01/04 02:09:40;;;;;;;;;;;4.40;99.90;;;;;;5114467;28;19908;-71
2023/01/04 02:12:09;;;;;;;;;;;4.40;99.90;;;;;;5114799;28;19912;-71
2023/01/04 02:14:35;;;;;;;;;;;4.30;99.90;;;;;;5115055;28;19934;-71
2023/01/04 02:17:14;;;;;;;;;;;4.30;99.90;;;;;;5114716;28;20363;-71
2023/01/04 02:19:45;;;;;;;;;;;4.30;99.90;;;;;;5114491;28;19911;-71
2023/01/04 02:22:13;;;;;;;;;;;4.30;99.90;;;;;;5114674;28;20355;-71
2023/01/04 02:24:45;;;;;;;;;;;4.30;99.90;;;;;;5114352;28;19915;-71
2023/01/04 02:27:22;;;;;;;;;;;4.30;99.90;;;;;;5115163;28;19907;-71
2023/01/04 02:30:06;;;;;;;;;;;4.30;99.90;;;;;;5114490;28;19907;-71
2023/01/04 02:32:48;;;;;;;;;;;4.30;99.90;;;;;;5113365;28;19962;-71
2023/01/04 02:35:32;;;;;;;;;;;4.30;99.90;;;;;;5114827;28;20313;-71
2023/01/04 02:38:03;;;;;;;;;;;4.30;99.90;;;;;;5115240;28;20283;-71
2023/01/04 02:40:42;;;;;;;;;;;4.30;99.90;;;;;;5113960;28;19976;-71
2023/01/04 02:46:27;;;;;;;;;;;4.30;99.90;;;;;;5114388;28;19929;-71
2023/01/04 02:51:37;;;;;;;;;;;4.30;99.90;;;;;;5099508;28;19956;-71
2023/01/04 02:54:05;;;;;;;;;;;4.30;99.90;;;;;;5114281;28;19915;-71
2023/01/04 02:56:40;;;;;;;;;;;4.30;99.90;;;;;;5114235;28;19914;-71
2023/01/04 02:59:20;;;;;;;;;;;4.30;99.90;;;;;;5114041;28;19969;-71
2023/01/04 03:07:31;;;;;;;;;;;4.30;99.90;;;;;;5093819;28;20429;-71
2023/01/04 03:10:01;;;;;;;;;;;4.30;99.90;;;;;;5093752;28;19908;-71
2023/01/04 03:12:30;;;;;;;;;;;4.30;99.90;;;;;;5093697;28;19908;-71
2023/01/04 03:15:00;;;;;;;;;;;4.30;99.90;;;;;;5093659;28;19958;-71
2023/01/04 03:17:28;;;;;;;;;;;4.30;99.90;;;;;;5093995;28;19912;-71
2023/01/04 03:19:56;;;;;;;;;;;4.30;99.90;;;;;;5093470;28;19956;-71
2023/01/04 03:36:28;;;;;;;;;;;4.20;99.90;;;;;;5097822;28;19919;-71
2023/01/04 03:50:24;;;;;;;;;;;4.20;99.90;;;;;;5097579;28;20374;-71
2023/01/04 03:52:50;;;;;;;;;;;4.10;99.90;;;;;;5097121;28;19994;-71
2023/01/04 03:55:16;;;;;;;;;;;4.20;99.90;;;;;;5096871;28;20365;-71
2023/01/04 03:57:43;;;;;;;;;;;4.20;99.90;;;;;;5097010;28;19908;-71
2023/01/04 04:00:10;;;;;;;;;;;4.10;99.90;;;;;;5096856;28;19917;-71
2023/01/04 04:02:36;;;;;;;;;;;4.20;99.90;;;;;;5112877;28;19915;-71
2023/01/04 04:10:30;;;;;;;;;;;4.10;99.90;;;;;;5117233;28;19934;-71
2023/01/04 04:12:55;;;;;;;;;;;4.10;99.90;;;;;;5117396;28;19912;-71
2023/01/04 04:15:21;;;;;;;;;;;4.10;99.90;;;;;;5117080;28;19915;-71
2023/01/04 04:17:47;;;;;;;;;;;4.10;99.90;;;;;;5115885;28;20287;-71
2023/01/04 04:20:12;;;;;;;;;;;4.10;99.90;;;;;;5117114;28;19922;-71
2023/01/04 04:22:38;;;;;;;;;;;4.20;99.90;;;;;;5116914;28;19908;-71
2023/01/04 04:25:04;;;;;;;;;;;4.10;99.90;;;;;;5116894;28;19908;-71
2023/01/04 04:27:30;;;;;;;;;;;4.20;99.90;;;;;;5116823;28;19912;-71
2023/01/04 04:29:55;;;;;;;;;;;4.20;99.90;;;;;;5116893;28;19964;-71
2023/01/04 04:32:21;;;;;;;;;;;4.20;99.90;;;;;;5116686;28;20000;-71
2023/01/04 04:34:47;;;;;;;;;;;4.20;99.90;;;;;;5116661;28;19912;-71
2023/01/04 04:37:12;;;;;;;;;;;4.20;99.90;;;;;;5116949;28;19912;-71
2023/01/04 04:39:38;;;;;;;;;;;4.20;99.90;;;;;;5116464;28;19919;-71
2023/01/04 04:42:03;;;;;;;;;;;4.10;99.90;;;;;;5097570;28;19912;-71
2023/01/04 04:44:29;;;;;;;;;;;4.10;99.90;;;;;;5117060;28;19951;-71
2023/01/04 04:46:54;;;;;;;;;;;4.10;99.90;;;;;;5116944;28;20298;-71
2023/01/04 04:49:20;;;;;;;;;;;4.10;99.90;;;;;;5098238;28;20003;-71
2023/01/04 04:51:46;;;;;;;;;;;4.10;99.90;;;;;;5116355;28;19912;-71
2023/01/04 04:54:14;;;;;;;;;;;4.10;99.90;;;;;;5116305;28;19964;-71
2023/01/04 04:56:39;;;;;;;;;;;4.10;99.90;;;;;;5116030;28;19908;-71
2023/01/04 04:59:05;;;;;;;;;;;4.20;99.90;;;;;;5116080;28;19927;-71
2023/01/04 05:01:31;;;;;;;;;;;4.10;99.90;;;;;;5097906;28;19908;-71
2023/01/04 05:03:57;;;;;;;;;;;4.10;99.90;;;;;;5116417;28;19936;-71
2023/01/04 05:06:22;;;;;;;;;;;4.10;99.90;;;;;;5097907;28;20347;-71
2023/01/04 05:08:48;;;;;;;;;;;4.10;99.90;;;;;;5116039;28;19912;-71
2023/01/04 05:11:14;;;;;;;;;;;4.10;99.90;;;;;;5115709;28;19919;-71
2023/01/04 05:13:40;;;;;;;;;;;4.10;99.90;;;;;;5116142;28;20359;-71
2023/01/04 05:16:06;;;;;;;;;;;4.10;99.90;;;;;;5116344;28;19920;-71
2023/01/04 05:18:32;;;;;;;;;;;4.10;99.90;;;;;;5115772;28;19976;-71
2023/01/04 05:20:58;;;;;;;;;;;4.10;99.90;;;;;;5116025;28;20375;-71
2023/01/04 05:23:23;;;;;;;;;;;4.10;99.90;;;;;;5115757;28;20273;-71
2023/01/04 05:25:52;;;;;;;;;;;4.10;99.90;;;;;;5115456;28;20326;-71
2023/01/04 05:28:18;;;;;;;;;;;4.10;99.90;;;;;;5115973;28;20335;-71
2023/01/04 05:30:49;;;;;;;;;;;4.10;99.90;;;;;;5115608;28;19951;-71
2023/01/04 05:33:16;;;;;;;;;;;4.10;99.90;;;;;;5115562;28;19915;-71
2023/01/04 05:35:42;;;;;;;;;;;4.10;99.90;;;;;;5115495;28;19952;-71
2023/01/04 05:38:07;;;;;;;;;;;4.20;99.90;;;;;;5115454;28;20006;-71
2023/01/04 05:40:33;;;;;;;;;;;4.20;99.90;;;;;;5114985;28;19957;-71
2023/01/04 05:42:59;;;;;;;;;;;4.20;99.90;;;;;;5115304;28;19947;-71
2023/01/04 05:45:24;;;;;;;;;;;4.20;99.90;;;;;;5115307;28;19994;-71
2023/01/04 05:47:50;;;;;;;;;;;4.20;99.90;;;;;;5115204;28;19937;-71
2023/01/04 05:50:17;;;;;;;;;;;4.20;99.90;;;;;;5115170;28;19950;-71
2023/01/04 05:52:42;;;;;;;;;;;4.20;99.90;;;;;;5114860;28;19915;-72
2023/01/04 05:55:08;;;;;;;;;;;4.10;99.90;;;;;;5114898;28;19912;-72
2023/01/04 05:57:33;;;;;;;;;;;4.10;99.90;;;;;;5113780;28;19927;-71
2023/01/04 05:59:59;;;;;;;;;;;4.10;99.90;;;;;;5096029;28;20259;-71
2023/01/04 06:02:26;;;;;;;;;;;4.10;99.90;;;;;;5114862;28;20006;-71
2023/01/04 06:04:51;;;;;;;;;;;4.10;99.90;;;;;;5114806;28;20290;-71
2023/01/04 06:07:17;;;;;;;;;;;4.10;99.90;;;;;;5113677;28;20006;-71
2023/01/04 06:09:43;;;;;;;;;;;4.10;99.90;;;;;;5114306;28;20382;-71
2023/01/04 06:12:09;;;;;;;;;;;4.10;99.90;;;;;;5114502;28;19908;-71
2023/01/04 06:14:34;;;;;;;;;;;4.10;99.90;;;;;;5114242;28;19908;-71
2023/01/04 06:17:00;;;;;;;;;;;4.10;99.90;;;;;;5114543;28;19912;-71
2023/01/04 06:19:26;;;;;;;;;;;4.10;99.90;;;;;;5113428;28;20010;-71
2023/01/04 06:21:51;;;;;;;;;;;4.10;99.90;;;;;;5096092;28;20049;-71
2023/01/04 06:24:17;;;;;;;;;;;4.10;99.90;;;;;;5096196;28;19932;-71
2023/01/04 06:26:43;;;;;;;;;;;4.10;99.90;;;;;;5114141;28;19908;-71
2023/01/04 06:29:08;;;;;;;;;;;4.10;99.90;;;;;;5114281;28;20424;-71
2023/01/04 06:31:34;;;;;;;;;;;4.10;99.90;;;;;;5114280;28;20382;-71
2023/01/04 06:34:00;;;;;;;;;;;4.00;99.90;;;;;;5113307;28;19961;-71
2023/01/04 06:36:25;;;;;;;;;;;4.00;99.90;;;;;;5113930;28;19951;-71
2023/01/04 06:38:51;;;;;;;;;;;4.00;99.90;;;;;;5114170;28;19922;-71
2023/01/04 06:41:17;;;;;;;;;;;4.00;99.90;;;;;;5095501;28;20295;-71
2023/01/04 06:43:42;;;;;;;;;;;4.00;99.90;;;;;;5114269;28;19908;-71
2023/01/04 06:46:08;;;;;;;;;;;4.00;99.90;;;;;;5112935;28;20345;-72
2023/01/04 06:48:34;;;;;;;;;;;4.00;99.90;;;;;;5114027;28;19919;-71
2023/01/04 06:50:59;;;;;;;;;;;4.00;99.90;;;;;;5109184;28;19907;-72
2023/01/04 06:53:25;;;;;;;;;;;4.00;99.90;;;;;;5095764;28;19935;-72
2023/01/04 06:55:50;;;;;;;;;;;4.00;99.90;;;;;;5113797;28;20359;-71
2023/01/04 06:58:16;;;;;;;;;;;4.00;99.90;;;;;;5113989;28;19911;-71
2023/01/04 07:00:42;;;;;;;;;;;4.00;99.90;;;;;;5113870;28;19916;-71
2023/01/04 07:03:08;;;;;;;;;;;4.00;99.90;;;;;;5113924;28;19934;-72
2023/01/04 07:05:34;;;;;;;;;;;4.00;99.90;;;;;;5099276;28;19934;-71
2023/01/04 07:08:00;;;;;;;;;;;4.00;99.90;;;;;;5118215;28;20359;-71
2023/01/04 07:10:26;;;;;;;;;;;4.00;99.90;;;;;;5117847;28;19972;-72
2023/01/04 07:12:51;;;;;;;;;;;4.00;99.90;;;;;;5118136;28;20415;-71
2023/01/04 07:15:17;;;;;;;;;;;4.00;99.90;;;;;;5115868;28;19912;-72
2023/01/04 07:17:42;;;;;;;;;;;4.00;99.90;;;;;;5117754;28;19916;-71
2023/01/04 07:20:08;;;;;;;;;;;4.00;99.90;;;;;;5117531;28;19915;-72
2023/01/04 07:22:34;;;;;;;;;;;4.00;99.90;;;;;;5117917;28;20285;-72
2023/01/04 07:24:59;;;;;;;;;;;4.00;99.90;;;;;;5099355;28;20398;-72
2023/01/04 07:27:25;;;;;;;;;;;4.10;99.90;;;;;;5117750;28;19916;-72
2023/01/04 07:29:50;;;;;;;;;;;4.00;99.90;;;;;;5117655;28;19912;-72
2023/01/04 07:32:16;;;;;;;;;;;4.00;99.90;;;;;;5117770;28;19912;-72
2023/01/04 07:34:42;;;;;;;;;;;4.10;99.90;;;;;;5117738;28;19912;-72
2023/01/04 07:37:08;;;;;;;;;;;4.10;99.90;;;;;;5117805;28;19912;-72
2023/01/04 07:39:34;;;;;;;;;;;4.10;99.90;;;;;;5127071;22;21084;-72
2023/01/04 07:41:59;;;;;;;;;;;4.10;99.90;;;;;;5097174;28;19913;-72
2023/01/04 07:44:26;;;;;;;;;;;4.10;99.90;;;;;;5097612;28;19919;-72
2023/01/04 07:46:52;;;;;;;;;;;4.10;99.90;;;;;;5097183;28;19922;-73
2023/01/04 07:49:18;;;;;;;;;;;4.10;99.90;;;;;;5098449;28;19915;-73
2023/01/04 07:51:44;;;;;;;;;;;4.10;99.90;;;;;;5117550;28;19908;-72
2023/01/04 07:54:10;;;;;;;;;;;4.10;99.90;;;;;;5099283;28;19950;-75
2023/01/04 07:56:36;;;;;;;;;;;4.10;99.90;;;;;;5097135;28;19952;-76
2023/01/04 07:59:05;;;;;;;;;;;4.10;99.90;;;;;;5099228;28;19920;-75
2023/01/04 08:01:30;;;;;;;;;;;4.10;99.90;;;;;;5111090;28;19911;-76
2023/01/04 08:03:56;;;;;;;;;;;4.20;99.90;;;;;;5117839;28;19908;-76
2023/01/04 08:06:21;;;;;;;;;;;4.10;99.90;;;;;;5105569;28;19916;-75
2023/01/04 08:08:47;;;;;;;;;;;4.20;99.90;;;;;;5116287;28;20351;-76
2023/01/04 08:11:17;;;;;;;;;;;4.10;99.90;;;;;;5111658;28;19954;-76
2023/01/04 08:13:43;;;;;;;;;;;4.20;99.90;;;;;;5096714;28;19908;-76
2023/01/04 08:16:17;;;;;;;;;;;4.20;99.90;;;;;;5106344;28;19998;-77
2023/01/04 08:18:43;;;;;;;;;;;4.20;99.90;;;;;;5094234;28;19955;-76
2023/01/04 08:21:09;;;;;;;;;;;4.30;99.90;;;;;;5115849;28;19947;-76
2023/01/04 08:23:35;;;;;;;;;;;4.30;99.90;;;;;;5098752;28;19908;-76
2023/01/04 08:26:04;;;;;;;;;;;4.30;99.90;;;;;;5116792;28;20302;-76
2023/01/04 08:28:30;;;;;;;;;;;4.40;99.90;;;;;;5116891;28;20287;-76
2023/01/04 08:30:56;;;;;;;;;;;4.40;99.90;;;;;;5116768;28;19919;-76
2023/01/04 08:33:21;;;;;;;;;;;4.40;99.90;;;;;;5116846;28;19907;-76
2023/01/04 08:35:47;;;;;;;;;;;4.40;99.90;;;;;;5098412;28;19914;-76
2023/01/04 08:38:12;;;;;;;;;;;4.40;99.90;;;;;;5117131;28;19919;-76
2023/01/04 08:40:38;;;;;;;;;;;4.50;99.90;;;;;;5116176;28;20337;-76
2023/01/04 08:43:03;;;;;;;;;;;4.50;99.90;;;;;;5115467;28;19951;-76
2023/01/04 08:45:29;;;;;;;;;;;4.50;99.90;;;;;;5116476;28;19912;-76
2023/01/04 08:47:55;;;;;;;;;;;4.60;99.90;;;;;;5116773;28;19922;-76
2023/01/04 08:50:20;;;;;;;;;;;4.60;99.90;;;;;;5116570;28;20368;-75
2023/01/04 08:52:46;;;;;;;;;;;4.60;99.90;;;;;;5116153;28;19939;-75
2023/01/04 08:55:12;;;;;;;;;;;4.60;99.90;;;;;;5098959;28;19950;-74
2023/01/04 08:57:37;;;;;;;;;;;4.70;99.90;;;;;;5094636;28;19908;-74
2023/01/04 09:00:03;;;;;;;;;;;4.70;99.90;;;;;;5096093;28;20436;-74
2023/01/04 09:02:29;;;;;;;;;;;4.70;99.90;;;;;;5096382;28;19999;-73
2023/01/04 09:04:58;;;;;;;;;;;4.80;99.90;;;;;;5095823;28;20001;-74
2023/01/04 09:07:27;;;;;;;;;;;4.90;99.90;;;;;;5095705;28;20042;-74
2023/01/04 09:09:52;;;;;;;;;;;4.90;99.90;;;;;;5095617;28;20014;-74
2023/01/04 09:12:18;;;;;;;;;;;4.90;99.90;;;;;;5095367;28;19955;-75
2023/01/04 09:14:43;;;;;;;;;;;4.90;99.90;;;;;;5095768;28;19912;-77
2023/01/04 09:17:09;;;;;;;;;;;4.90;99.90;;;;;;5112250;28;19919;-73
2023/01/04 09:19:34;;;;;;;;;;;4.90;99.90;;;;;;5115922;28;19947;-70
2023/01/04 09:22:00;;;;;;;;;;;4.90;99.90;;;;;;5115769;28;19915;-75
2023/01/04 09:24:25;;;;;;;;;;;4.90;99.90;;;;;;5115677;28;20371;-72
2023/01/04 09:26:51;;;;;;;;;;;4.90;99.90;;;;;;5114816;28;20375;-73
2023/01/04 09:29:17;;;;;;;;;;;4.90;99.90;;;;;;5115848;28;20019;-72
2023/01/04 09:31:42;;;;;;;;;;;4.90;99.90;;;;;;5115863;28;19916;-72
2023/01/04 09:34:10;;;;;;;;;;;4.90;99.90;;;;;;5115550;28;19911;-72
2023/01/04 09:36:35;;;;;;;;;;;4.90;99.90;;;;;;5115563;28;19915;-71
2023/01/04 09:39:01;;;;;;;;;;;4.90;99.90;;;;;;5115335;28;19916;-71
2023/01/04 09:41:28;;;;;;;;;;;5.00;99.90;;;;;;5115118;28;19942;-72
2023/01/04 09:43:55;;;;;;;;;;;5.10;99.90;;;;;;5115378;28;19956;-72
2023/01/04 09:46:20;;;;;;;;;;;5.10;99.90;;;;;;5115251;28;19907;-72
2023/01/04 09:48:46;;;;;;;;;;;5.10;99.90;;;;;;5115211;28;19960;-72
2023/01/04 09:51:15;;;;;;;;;;;5.10;99.90;;;;;;5115180;28;19907;-72
2023/01/04 09:53:43;;;;;;;;;;;5.10;99.90;;;;;;5096978;28;20018;-72
2023/01/04 09:56:14;;;;;;;;;;;5.10;99.90;;;;;;5114864;28;20386;-72
2023/01/04 09:58:41;;;;;;;;;;;5.10;99.90;;;;;;5115321;28;20282;-71
2023/01/04 10:01:06;;;;;;;;;;;5.10;99.90;;;;;;5114958;28;20344;-71
2023/01/04 10:03:34;;;;;;;;;;;5.20;99.90;;;;;;5115007;28;19908;-71
2023/01/04 10:06:00;;;;;;;;;;;5.30;99.90;;;;;;5115265;28;19908;-71
2023/01/04 10:08:25;;;;;;;;;;;5.30;99.90;;;;;;5115046;28;19988;-71
2023/01/04 10:10:51;;;;;;;;;;;5.40;99.90;;;;;;5114675;28;20363;-71
2023/01/04 10:13:16;;;;;;;;;;;5.50;99.90;;;;;;5114829;28;19908;-71
2023/01/04 10:15:51;;;;;;;;;;;5.50;99.90;;;;;;5114771;28;19907;-74
2023/01/04 10:18:26;;;;;;;;;;;5.60;99.90;;;;;;5114719;28;19997;-74
2023/01/04 10:21:10;;;;;;;;;;;5.70;99.90;;;;;;5096335;28;19911;-73
2023/01/04 10:23:41;;;;;;;;;;;5.80;99.90;;;;;;5114986;28;19912;-74
2023/01/04 10:26:07;;;;;;;;;;;5.90;99.90;;;;;;5114368;28;19915;-74
2023/01/04 10:28:42;;;;;;;;;;;5.90;99.90;;;;;;5114572;28;19907;-74
2023/01/04 10:31:10;;;;;;;;;;;6.00;99.90;;;;;;5114685;28;19951;-74
2023/01/04 10:33:39;;;;;;;;;;;6.10;99.90;;;;;;5114523;28;19980;-74
2023/01/04 10:36:14;;;;;;;;;;;6.20;99.90;;;;;;5114813;28;19915;-74
2023/01/04 10:38:41;;;;;;;;;;;6.20;99.90;;;;;;5113701;28;19908;-74
2023/01/04 10:41:12;;;;;;;;;;;6.20;99.90;;;;;;5079310;28;19920;-74
2023/01/04 10:43:38;;;;;;;;;;;6.30;99.90;;;;;;5096211;28;19915;-74
2023/01/04 10:46:03;;;;;;;;;;;6.30;99.90;;;;;;5114973;28;19908;-74
2023/01/04 10:48:37;;;;;;;;;;;6.30;99.90;;;;;;5114408;28;19951;-74
2023/01/04 10:51:03;;;;;;;;;;;6.40;99.90;;;;;;5114232;28;19908;-75
2023/01/04 10:53:32;;;;;;;;;;;6.50;99.90;;;;;;5114279;28;19943;-74
2023/01/04 10:56:01;;;;;;;;;;;6.50;99.90;;;;;;5095729;28;19908;-74
2023/01/04 10:58:36;;;;;;;;;;;6.50;99.90;;;;;;5114190;28;19912;-75
2023/01/04 11:01:09;;;;;;;;;;;6.60;99.90;;;;;;5114033;28;19955;-74
2023/01/04 11:03:43;;;;;;;;;;;6.60;99.90;;;;;;5114440;28;20003;-74
2023/01/04 11:06:14;;;;;;;;;;;6.60;99.90;;;;;;5114203;28;19908;-74
2023/01/04 11:08:46;;;;;;;;;;;6.70;99.90;;;;;;5114102;28;19939;-74
2023/01/04 11:11:21;;;;;;;;;;;6.70;99.90;;;;;;5113892;28;20383;-74
2023/01/04 11:13:48;;;;;;;;;;;6.70;99.90;;;;;;5095827;28;20006;-75
2023/01/04 11:16:13;;;;;;;;;;;6.80;99.90;;;;;;5114018;28;20006;-74
2023/01/04 11:18:39;;;;;;;;;;;6.80;99.90;;;;;;5114059;28;19965;-74
2023/01/04 11:21:07;;;;;;;;;;;6.80;99.90;;;;;;5113899;28;20287;-74
2023/01/04 11:23:33;;;;;;;;;;;6.80;99.90;;;;;;5114007;28;19916;-74
2023/01/04 11:26:04;;;;;;;;;;;6.90;99.90;;;;;;5113773;28;19912;-74
2023/01/04 11:28:38;;;;;;;;;;;6.90;99.90;;;;;;5114077;28;20355;-74
2023/01/04 11:31:12;;;;;;;;;;;6.90;99.90;;;;;;5113893;28;19908;-74
2023/01/04 11:34:04;;;;;;;;;;;6.90;99.90;;;;;;5113927;28;19954;-74
2023/01/04 11:36:29;;;;;;;;;;;6.90;99.90;;;;;;5111891;28;19931;-74
2023/01/04 11:38:55;;;;;;;;;;;6.90;99.90;;;;;;5113760;28;20317;-72
2023/01/04 11:41:21;;;;;;;;;;;7.00;99.90;;;;;;5113460;28;20387;-74
2023/01/04 11:43:55;;;;;;;;;;;7.00;99.90;;;;;;5095589;28;19951;-74
2023/01/04 11:46:23;;;;;;;;;;;7.10;99.90;;;;;;5113952;28;20343;-74
2023/01/04 11:48:49;;;;;;;;;;;7.20;99.90;;;;;;5113763;28;19914;-74
2023/01/04 11:51:21;;;;;;;;;;;7.20;99.90;;;;;;5116414;28;19915;-72
2023/01/04 11:53:56;;;;;;;;;;;7.30;99.90;;;;;;5117537;28;19908;-72
2023/01/04 11:56:22;;;;;;;;;;;7.30;99.90;;;;;;5117244;28;19915;-73
2023/01/04 11:59:20;;;;;;;;;;;7.40;99.90;;;;;;5117381;28;19908;-71
2023/01/04 12:01:48;;;;;;;;;;;7.40;99.90;;;;;;5094250;28;20373;-73
2023/01/04 12:04:25;;;;;;;;;;;7.50;99.90;;;;;;5117580;28;19908;-72
2023/01/04 12:06:52;;;;;;;;;;;7.50;99.90;;;;;;5117582;28;19914;-73
2023/01/04 12:09:19;;;;;;;;;;;7.60;99.90;;;;;;5098945;28;19908;-73
2023/01/04 12:11:55;;;;;;;;;;;7.70;99.90;;;;;;5116806;28;19959;-73
2023/01/04 12:14:22;;;;;;;;;;;7.70;99.90;;;;;;5117444;28;20003;-73
2023/01/04 12:16:57;;;;;;;;;;;7.70;99.90;;;;;;5117009;28;19908;-73
2023/01/04 12:19:23;;;;;;;;;;;7.70;99.90;;;;;;5116933;28;19912;-73
2023/01/04 12:21:51;;;;;;;;;;;7.70;99.90;;;;;;5117231;28;19994;-73
2023/01/04 12:24:18;;;;;;;;;;;7.70;99.90;;;;;;5117254;28;19961;-73
2023/01/04 12:26:44;;;;;;;;;;;7.60;99.90;;;;;;5098404;28;19939;-73
2023/01/04 12:29:21;;;;;;;;;;;7.60;99.90;;;;;;5117025;28;19908;-73
2023/01/04 12:32:16;;;;;;;;;;;7.60;99.90;;;;;;5116948;28;20371;-73
2023/01/04 12:34:47;;;;;;;;;;;7.60;99.90;;;;;;5098329;28;20268;-73
2023/01/04 12:37:32;;;;;;;;;;;7.60;99.90;;;;;;5116696;28;19908;-73
2023/01/04 12:39:57;;;;;;;;;;;7.60;99.90;;;;;;5116319;28;20067;-73
2023/01/04 12:42:26;;;;;;;;;;;7.60;99.90;;;;;;5116456;28;19912;-72
2023/01/04 12:44:51;;;;;;;;;;;7.60;99.90;;;;;;5116510;28;20285;-72
2023/01/04 12:50:06;;;;;;;;;;;7.50;99.90;;;;;;5116642;28;20431;-72
2023/01/04 12:52:31;;;;;;;;;;;7.50;99.90;;;;;;5098157;28;19953;-72
2023/01/04 12:55:02;;;;;;;;;;;7.50;99.90;;;;;;5116399;28;19907;-72
2023/01/04 12:57:27;;;;;;;;;;;7.50;99.90;;;;;;5116145;28;20359;-72
2023/01/04 12:59:54;;;;;;;;;;;7.50;99.90;;;;;;5116117;28;19964;-72
2023/01/04 13:02:22;;;;;;;;;;;7.50;99.90;;;;;;5115220;28;19946;-72
2023/01/04 13:04:49;;;;;;;;;;;7.60;99.90;;;;;;5116144;28;19931;-72
2023/01/04 13:07:20;;;;;;;;;;;7.60;99.90;;;;;;5116123;28;19908;-72
2023/01/04 13:09:50;;;;;;;;;;;7.60;99.90;;;;;;5116035;28;20359;-72
2023/01/04 13:12:16;;;;;;;;;;;7.60;99.90;;;;;;5115752;28;19915;-72
2023/01/04 13:14:57;;;;;;;;;;;7.50;99.90;;;;;;5111728;28;19912;-72
2023/01/04 13:17:24;;;;;;;;;;;7.50;99.90;;;;;;5095453;28;19915;-72
2023/01/04 13:19:50;;;;;;;;;;;7.50;99.90;;;;;;5095326;28;20010;-72
2023/01/04 13:22:20;;;;;;;;;;;7.60;99.90;;;;;;5095791;28;20444;-73
2023/01/04 13:24:47;;;;;;;;;;;7.50;99.90;;;;;;5095687;28;20341;-73
2023/01/04 13:27:14;;;;;;;;;;;7.50;99.90;;;;;;5099006;28;20275;-73
2023/01/04 13:29:40;;;;;;;;;;;7.50;99.90;;;;;;5095168;28;20280;-73
2023/01/04 13:32:19;;;;;;;;;;;7.50;99.90;;;;;;5095899;28;19955;-73
2023/01/04 13:34:54;;;;;;;;;;;7.50;99.90;;;;;;5097713;28;19973;-77
2023/01/04 13:37:20;;;;;;;;;;;7.50;99.90;;;;;;5096541;28;19908;-76
2023/01/04 13:39:47;;;;;;;;;;;7.50;99.90;;;;;;5095623;28;19982;-74
2023/01/04 13:42:23;;;;;;;;;;;7.50;99.90;;;;;;5096182;28;19908;-75
2023/01/04 13:45:07;;;;;;;;;;;7.50;99.90;;;;;;5095404;28;20417;-71
2023/01/04 13:47:35;;;;;;;;;;;7.50;99.90;;;;;;5105540;28;20025;-78
2023/01/04 13:50:00;;;;;;;;;;;7.50;99.90;;;;;;5116316;28;19915;-75
2023/01/04 13:52:27;;;;;;;;;;;7.50;99.90;;;;;;5115287;28;19912;-76
2023/01/04 13:55:10;;;;;;;;;;;7.40;99.90;;;;;;5096496;23;20375;-80
2023/01/04 13:57:35;;;;;;;;;;;7.50;99.90;;;;;;5057370;28;19909;-80
2023/01/04 14:00:03;;;;;;;;;;;7.40;99.90;;;;;;5079100;28;20027;-80
2023/01/04 14:02:30;;;;;;;;;;;7.40;99.90;;;;;;5060691;28;19909;-79
2023/01/04 14:04:55;;;;;;;;;;;7.40;99.90;;;;;;5078481;28;19951;-79
2023/01/04 14:07:23;;;;;;;;;;;7.40;99.90;;;;;;5069973;28;20388;-80
2023/01/04 14:09:51;;;;;;;;;;;7.40;99.90;;;;;;5062945;23;19925;-86
2023/01/04 14:12:19;;;;;;;;;;;7.40;99.90;;;;;;5074307;28;19908;-86
2023/01/04 14:14:47;;;;;;;;;;;7.30;99.90;;;;;;5073443;28;20404;-87
2023/01/04 14:17:20;;;;;;;;;;;7.30;99.90;;;;;;5074940;28;19915;-86
2023/01/04 14:19:49;;;;;;;;;;;7.30;99.90;;;;;;5073588;28;20007;-86
2023/01/04 14:22:24;;;;;;;;;;;7.30;99.90;;;;;;5073570;28;19959;-86
2023/01/04 14:24:50;;;;;;;;;;;7.30;99.90;;;;;;5073374;28;19908;-87
2023/01/04 14:27:32;;;;;;;;;;;7.30;99.90;;;;;;5074812;28;20421;-86
2023/01/04 14:29:58;;;;;;;;;;;7.30;99.90;;;;;;5073314;28;19956;-87
2023/01/04 14:32:24;;;;;;;;;;;7.30;99.90;;;;;;5043376;28;20376;-86
2023/01/04 14:34:50;;;;;;;;;;;7.30;99.90;;;;;;5060379;28;20245;-86
2023/01/04 14:37:16;;;;;;;;;;;7.30;99.90;;;;;;5077288;28;20007;-86
2023/01/04 14:39:41;;;;;;;;;;;7.30;99.90;;;;;;5059890;28;20406;-87
2023/01/04 14:42:24;;;;;;;;;;;7.30;99.90;;;;;;5059987;28;19947;-87
2023/01/04 14:44:49;;;;;;;;;;;7.30;99.90;;;;;;5094820;28;20342;-86
2023/01/04 14:47:15;;;;;;;;;;;7.20;99.90;;;;;;5076878;28;19912;-88
2023/01/04 14:49:41;;;;;;;;;;;7.20;99.90;;;;;;5059904;28;19916;-86
2023/01/04 14:52:24;;;;;;;;;;;7.20;99.90;;;;;;5060320;28;20362;-86
2023/01/04 14:54:50;;;;;;;;;;;7.10;99.90;;;;;;5076599;28;20276;-87
2023/01/04 14:57:16;;;;;;;;;;;7.10;99.90;;;;;;5060053;28;19919;-86
2023/01/04 14:59:43;;;;;;;;;;;7.00;99.90;;;;;;5076779;28;19940;-86
2023/01/04 15:02:09;;;;;;;;;;;7.00;99.90;;;;;;5060289;28;19913;-86
2023/01/04 15:04:35;;;;;;;;;;;7.00;99.90;;;;;;5094966;28;19919;-87
2023/01/04 15:07:00;;;;;;;;;;;7.00;99.90;;;;;;5095821;28;19962;-86
2023/01/04 15:09:26;;;;;;;;;;;7.00;99.90;;;;;;5074478;28;19916;-87
2023/01/04 15:11:53;;;;;;;;;;;7.00;99.90;;;;;;5079975;28;19912;-86
2023/01/04 15:14:19;;;;;;;;;;;6.90;99.90;;;;;;5082006;28;20349;-86
2023/01/04 15:16:45;;;;;;;;;;;6.90;99.90;;;;;;5077960;28;19958;-86
2023/01/04 15:19:10;;;;;;;;;;;6.90;99.90;;;;;;5077826;28;19920;-86